Flight Track Log - Related Links

Times and Time Zones

All times are in EDT time to prevent confusion due to time zone crossing. See the JZA7654 flight status page for this flight to view local times or setup timezone preferences in your user account.

Time Position Orientation Groundspeed Altitude Reporting Facility
EDT Latitude Longitude Course Direction KTS MPH feet Rate Location/Type
Fri 06:55:10 PM 45.4500 -73.7500 189° South 10 12 100  Level Montreal Center
Fri 06:56:10 PM 45.4667 -73.7167 55° Northeast 160 184 1,100 1,800 Climbing Montreal Center
Fri 06:57:10 PM 45.5167 -73.6667 35° Northeast 180 207 3,700 2,450 Climbing Montreal Center
Fri 06:58:10 PM 45.5000 -73.5833 106° East 280 322 6,000 2,650 Climbing Montreal Center
Fri 06:59:10 PM 45.4500 -73.5333 145° Southeast 270 311 9,000 2,750 Climbing Montreal Center
Fri 07:00:00 PM 44.9171 -74.0871 189° South  Level FlightAware Approximate
Fri 07:00:10 PM 45.3833 -73.5833 208° Southwest 300 345 11,500  Level Montreal Center
Fri 07:01:00 PM 44.8189 -74.1098 189° South  Level FlightAware Approximate
Fri 07:01:10 PM 45.3000 -73.6333 203° Southwest 310 357 14,300  Level Montreal Center
Fri 07:02:10 PM 45.2333 -73.7167 221° Southwest 310 357 16,300 1,850 Climbing Montreal Center
Fri 07:03:10 PM 45.1500 -73.7667 203° Southwest 330 380 18,000 1,650 Climbing Montreal Center
Fri 07:04:10 PM 45.0500 -73.7833 187° South 340 391 19,600 1,650 Climbing Montreal Center
Fri 07:05:10 PM 44.9500 -73.7833 180° South 350 403 21,300 1,550 Climbing Montreal Center
Fri 07:06:10 PM 44.8500 -73.7667 173° South 360 414 22,700 1,300 Climbing Montreal Center
Fri 07:07:10 PM 44.7667 -73.7833 188° South 370 426 23,900 1,250 Climbing Montreal Center
Fri 07:08:10 PM 44.6500 -73.7833 180° South 380 437 25,200 1,150 Climbing Montreal Center
Fri 07:09:10 PM 44.5500 -73.7833 180° South 380 437 26,200 1,150 Climbing Montreal Center
Fri 07:10:10 PM 44.4333 -73.7833 180° South 390 449 27,500 1,150 Climbing Montreal Center
Fri 07:11:10 PM 44.3333 -73.8000 187° South 390 449 28,500 1,000 Climbing Montreal Center
Fri 07:12:10 PM 44.2167 -73.7667 168° South 390 449 29,500 850 Climbing Montreal Center
Fri 07:13:10 PM 44.1167 -73.7833 187° South 400 460 30,200 700 Climbing Montreal Center
Fri 07:14:10 PM 43.9833 -73.7833 180° South 410 472 30,900 -50 Climbing Montreal Center
Fri 07:15:10 PM 43.8833 -73.7833 180° South 420 483 30,100 -450 Descending Montreal Center
Fri 07:16:10 PM 43.7500 -73.8000 185° South 440 506 30,000 -50 Descending Montreal Center
Fri 07:17:10 PM 43.6333 -73.8000 180° South 440 506 30,000  Level Montreal Center
Fri 07:18:10 PM 43.5167 -73.7833 174° South 450 518 30,000  Level Montreal Center
Fri 07:19:34 PM 43.3550 -73.8022 185° South 441 507 30,000  Level Boston Center
Fri 07:20:34 PM 43.2364 -73.8022 180° South 436 502 30,000  Level Boston Center
Fri 07:21:35 PM 43.1156 -73.8025 180° South 436 502 30,000  Level Boston Center
Fri 07:22:36 PM 42.9986 -73.8028 180° South 436 502 30,000  Level Boston Center
Fri 07:23:34 PM 42.8800 -73.8058 181° South 436 502 30,000  Level Boston Center
Fri 07:24:35 PM 42.7611 -73.8089 181° South 430 495 30,000  Level Boston Center
Fri 07:25:35 PM 42.6403 -73.8089 180° South 430 495 30,000  Level Boston Center
Fri 07:26:36 PM 42.5150 -73.8089 180° South 425 489 30,000  Level Boston Center
Fri 07:27:36 PM 42.3922 -73.8119 181° South 425 489 30,000  Level Boston Center
Fri 07:28:36 PM 42.2733 -73.8150 181° South 430 495 30,000  Level Boston Center
Fri 07:29:34 PM 42.1503 -73.8178 181° South 436 502 30,000  Level Boston Center
Fri 07:30:34 PM 42.0294 -73.8208 181° South 436 502 30,000  Level Boston Center
Fri 07:31:35 PM 41.9083 -73.8236 181° South 436 502 30,000 -148 Level Boston Center
Fri 07:32:36 PM 41.8106 -73.8244 180° South 436 502 29,700 -756 Descending Boston Center
Fri 07:33:34 PM 41.6789 -73.8381 184° South 436 502 28,500 -1,103 Descending Boston Center
Fri 07:35:30 PM 41.4625 -74.0239 213° Southwest 451 519 26,500 -843 Descending New York Center
Fri 07:36:32 PM 41.3517 -74.1153 212° Southwest 464 534 26,000 -246 Descending New York Center
Fri 07:37:32 PM 41.2514 -74.2014 213° Southwest 459 528 26,000  Level New York Center
Fri 07:38:30 PM 41.1450 -74.2786 209° Southwest 453 521 26,000  Level New York Center
Fri 07:39:31 PM 41.0464 -74.3642 213° Southwest 440 506 26,000  Level New York Center
Fri 07:40:32 PM 40.9600 -74.4667 222° Southwest 427 491 26,000  Level New York Center
Fri 07:41:33 PM 40.8647 -74.5769 221° Southwest 440 506 26,000 -101 Level New York Center
Fri 07:42:31 PM 40.7697 -74.6867 221° Southwest 452 520 25,800 -610 Descending New York Center
Fri 07:43:31 PM 40.6742 -74.8014 222° Southwest 457 526 24,800 -992 Descending New York Center
Fri 07:44:32 PM 40.5764 -74.9133 221° Southwest 462 532 23,800 -992 Descending New York Center
Fri 07:45:32 PM 40.4872 -75.0197 222° Southwest 456 525 22,800 -1,271 Descending New York Center
Fri 07:46:30 PM 40.3914 -75.1283 221° Southwest 451 519 21,300 -2,237 Descending New York Center
Fri 07:47:30 PM 40.3022 -75.2317 221° Southwest 451 519 18,400 -1,636 Descending New York Center
Fri 07:48:31 PM 40.2278 -75.3247 224° Southwest 422 486 18,000 -200 Descending New York Center
Fri 07:49:30 PM 40.1375 -75.4464 226° Southwest 421 484 18,000  Level New York Center
Fri 07:50:30 PM 40.0689 -75.5475 228° Southwest 415 478 18,000  Level New York Center
Fri 07:51:33 PM 39.9847 -75.6664 227° Southwest 415 478 18,000  Level New York Center
Fri 07:52:33 PM 39.9139 -75.7669 227° Southwest 421 484 18,000  Level New York Center
Fri 07:53:31 PM 39.8294 -75.8853 227° Southwest 415 478 18,000  Level New York Center
Fri 07:54:32 PM 39.7586 -75.9828 227° Southwest 415 478 18,000 -151 Level New York Center
Fri 07:55:30 PM 39.6806 -76.0931 227° Southwest 421 484 17,700 -1,491 Descending New York Center
Fri 07:57:17 PM 39.5333 -76.3000 227° Southwest 391 450 13,900 -2,012 Descending Potomac TRACON
Fri 07:58:17 PM 39.4667 -76.4000 229° Southwest 373 429 12,100 -950 Descending Potomac TRACON
Fri 07:59:17 PM 39.3833 -76.4833 218° Southwest 369 425 12,000 -500 Descending Potomac TRACON
Fri 08:00:17 PM 39.3000 -76.5500 212° Southwest 376 433 11,100 -1,000 Descending Potomac TRACON
Fri 08:01:17 PM 39.2167 -76.6167 212° Southwest 342 394 10,000 -550 Descending Potomac TRACON
Fri 08:02:17 PM 39.1500 -76.6833 218° Southwest 283 326 10,000  Level Potomac TRACON
Fri 08:03:17 PM 39.1000 -76.7667 232° Southwest 282 325 10,000 -350 Level Potomac TRACON
Fri 08:04:17 PM 39.0833 -76.8667 258° West 278 320 9,300 -850 Descending Potomac TRACON
Fri 08:05:17 PM 39.0667 -76.9500 256° West 236 272 8,300 -1,200 Descending Potomac TRACON
Fri 08:06:17 PM 39.0500 -77.0333 256° West 232 267 6,900 -1,300 Descending Potomac TRACON
Fri 08:07:17 PM 39.0500 -77.1000 270° West 227 261 5,700 -950 Descending Potomac TRACON
Fri 08:08:17 PM 39.0500 -77.1833 270° West 192 221 5,000 -900 Descending Potomac TRACON
Fri 08:09:17 PM 39.0167 -77.2000 201° Southwest 185 213 3,900 -1,000 Descending Potomac TRACON
Fri 08:10:17 PM 38.9833 -77.1667 142° Southeast 183 211 3,000 -800 Descending Potomac TRACON
Fri 08:11:17 PM 38.9500 -77.1333 142° Southeast 177 204 2,300 -750 Descending Potomac TRACON
Fri 08:12:17 PM 38.9167 -77.0833 131° Southeast 142 163 1,500 -793 Descending Potomac TRACON
Fri 08:13:18 PM 38.8833 -77.0500 142° Southeast 138 159 700 -787 Descending Potomac TRACON

Login

Don't have an account? Register now (free) for customized features, flight alerts, and more!